createdAt,value
2023-05-01T00:02:19.663Z,2.20
2023-05-01T00:05:10.828Z,2.80
2023-05-01T00:08:00.337Z,2.40
2023-05-01T00:13:38.153Z,2.60
2023-05-01T00:16:27.125Z,2.40
2023-05-01T00:19:18.015Z,2.30
2023-05-01T00:22:07.402Z,2.40
2023-05-01T00:24:49.779Z,2.30
2023-05-01T00:27:38.919Z,2.60
2023-05-01T00:30:28.383Z,2.40
2023-05-01T00:33:20.634Z,2.90
2023-05-01T00:36:10.067Z,2.30
2023-05-01T00:39:00.961Z,2.30
2023-05-01T00:41:50.265Z,1.60
2023-05-01T00:44:39.430Z,2.20
2023-05-01T00:47:28.518Z,2.20
2023-05-01T00:50:19.265Z,1.60
2023-05-01T00:53:08.163Z,2.10
2023-05-01T00:55:58.172Z,2.60
2023-05-01T00:58:52.753Z,2.00
2023-05-01T01:01:42.169Z,1.30
2023-05-01T01:04:32.967Z,2.10
2023-05-01T01:07:33.378Z,2.10
2023-05-01T01:10:35.279Z,2.30
2023-05-01T01:13:32.352Z,2.30
2023-05-01T01:16:45.346Z,1.90
2023-05-01T01:20:10.405Z,2.50
2023-05-01T01:23:27.025Z,2.50
2023-05-01T01:26:31.598Z,2.50
2023-05-01T01:29:44.368Z,2.70
2023-05-01T01:33:04.128Z,2.30
2023-05-01T01:35:57.720Z,3.10
2023-05-01T01:38:54.220Z,2.40
2023-05-01T01:41:49.990Z,2.30
2023-05-01T01:44:42.119Z,2.50
2023-05-01T01:47:33.803Z,2.70
2023-05-01T01:50:26.764Z,2.30
2023-05-01T01:53:18.520Z,1.90
2023-05-01T01:56:09.503Z,1.50
2023-05-01T01:59:01.224Z,1.50
2023-05-01T02:01:34.995Z,2.30
2023-05-01T02:04:27.992Z,2.90
2023-05-01T02:07:19.712Z,3.20
2023-05-01T02:10:13.398Z,2.60
2023-05-01T02:13:03.199Z,3.50
2023-05-01T02:15:55.536Z,3.10
2023-05-01T02:18:47.273Z,2.60
2023-05-01T02:21:31.476Z,3.10
2023-05-01T02:24:23.489Z,3.20
2023-05-01T02:27:16.596Z,3.00
2023-05-01T02:30:09.581Z,3.80
2023-05-01T02:32:58.748Z,3.00
2023-05-01T02:35:48.997Z,3.10
2023-05-01T02:38:38.209Z,3.50
2023-05-01T02:41:28.158Z,3.00
2023-05-01T02:44:19.006Z,3.40
2023-05-01T02:47:12.419Z,3.10
2023-05-01T02:50:03.069Z,2.60
2023-05-01T02:52:54.184Z,2.30
2023-05-01T02:55:42.122Z,2.60
2023-05-01T02:58:32.717Z,3.20
2023-05-01T03:01:22.434Z,2.80
2023-05-01T03:04:11.442Z,3.00
2023-05-01T03:09:48.680Z,3.20
2023-05-01T03:12:37.649Z,3.40
2023-05-01T03:15:26.984Z,2.80
2023-05-01T03:18:16.142Z,2.90
2023-05-01T03:21:05.606Z,3.10
2023-05-01T03:23:54.934Z,3.80
2023-05-01T03:29:33.513Z,3.10
2023-05-01T03:32:23.083Z,3.70
2023-05-01T03:35:12.403Z,3.60
2023-05-01T03:38:01.858Z,4.10
2023-05-01T03:40:57.233Z,3.30
2023-05-01T03:43:44.786Z,2.70
2023-05-01T03:46:34.004Z,3.30
2023-05-01T03:49:23.095Z,3.40
2023-05-01T03:55:01.547Z,3.40
2023-05-01T03:58:00.136Z,3.50
2023-05-01T04:00:50.709Z,3.80
2023-05-01T04:03:40.299Z,3.20
2023-05-01T04:06:30.259Z,4.00
2023-05-01T04:09:19.343Z,3.80
2023-05-01T04:14:57.063Z,3.40
2023-05-01T04:17:48.019Z,3.80
2023-05-01T04:20:36.880Z,3.80
2023-05-01T04:26:15.833Z,4.10
2023-05-01T04:29:05.233Z,3.90
2023-05-01T04:31:54.298Z,4.30
2023-05-01T04:34:43.842Z,4.80
2023-05-01T04:37:36.251Z,6.70
2023-05-01T04:40:28.290Z,7.30
2023-05-01T04:43:17.044Z,6.90
2023-05-01T04:46:06.472Z,6.50
2023-05-01T04:48:55.450Z,6.40
2023-05-01T04:51:45.371Z,5.90
2023-05-01T04:54:34.471Z,6.20
2023-05-01T04:57:24.013Z,6.00
2023-05-01T05:00:15.638Z,5.50
2023-05-01T05:03:05.003Z,5.40
2023-05-01T05:05:56.674Z,4.90
2023-05-01T05:08:46.132Z,4.20
2023-05-01T05:11:38.659Z,4.70
2023-05-01T05:14:28.161Z,4.30
2023-05-01T05:17:17.098Z,5.00
2023-05-01T05:20:09.549Z,4.60
2023-05-01T05:22:58.378Z,4.40
2023-05-01T05:25:47.438Z,4.10
2023-05-01T05:28:36.962Z,4.40
2023-05-01T05:31:29.619Z,4.70
2023-05-01T05:34:19.498Z,4.20
2023-05-01T05:37:08.615Z,4.10
2023-05-01T05:39:58.053Z,4.60
2023-05-01T05:42:48.225Z,4.50
2023-05-01T05:45:37.393Z,4.20
2023-05-01T05:48:29.018Z,3.80
2023-05-01T05:50:58.777Z,3.80
2023-05-01T05:53:47.874Z,4.20
2023-05-01T05:56:37.224Z,3.30
2023-05-01T05:59:26.927Z,3.60
2023-05-01T06:02:15.824Z,2.70
2023-05-01T06:05:06.121Z,2.50
2023-05-01T06:07:55.491Z,2.50
2023-05-01T06:10:45.811Z,2.80
2023-05-01T06:13:35.381Z,2.90
2023-05-01T06:16:26.019Z,2.70
2023-05-01T06:19:15.436Z,2.20
2023-05-01T06:22:06.619Z,1.70
2023-05-01T06:24:56.189Z,2.10
2023-05-01T06:27:46.246Z,1.90
2023-05-01T06:30:56.323Z,1.90
2023-05-01T06:33:45.878Z,2.30
2023-05-01T06:36:41.324Z,1.70
2023-05-01T06:42:18.181Z,1.30
2023-05-01T06:47:56.811Z,2.00
2023-05-01T06:50:46.024Z,2.00
2023-05-01T06:56:23.461Z,1.60
2023-05-01T06:59:14.097Z,2.00
2023-05-01T07:02:03.352Z,1.50
2023-05-01T07:04:54.588Z,1.50
2023-05-01T07:07:50.513Z,1.70
2023-05-01T07:10:49.019Z,1.30
2023-05-01T07:13:38.274Z,1.70
2023-05-01T07:16:27.708Z,1.80
2023-05-01T07:19:17.267Z,1.50
2023-05-01T07:22:07.394Z,1.60
2023-05-01T07:24:56.894Z,1.90
2023-05-01T07:27:46.033Z,1.80
2023-05-01T07:30:30.668Z,1.80
2023-05-01T07:33:20.250Z,2.00
2023-05-01T07:36:09.855Z,1.80
2023-05-01T07:38:58.949Z,1.80
2023-05-01T07:41:48.487Z,1.70
2023-05-01T07:44:38.570Z,2.00
2023-05-01T07:47:29.582Z,1.70
2023-05-01T07:50:18.888Z,1.80
2023-05-01T07:53:08.884Z,1.90
2023-05-01T07:56:08.178Z,1.80
2023-05-01T07:58:57.552Z,2.00
2023-05-01T08:01:47.365Z,1.90
2023-05-01T08:04:37.128Z,2.00
2023-05-01T08:07:18.742Z,1.70
2023-05-01T08:10:09.825Z,1.70
2023-05-01T08:12:58.864Z,1.70
2023-05-01T08:15:48.872Z,1.70
2023-05-01T08:18:38.691Z,1.60
2023-05-01T08:21:29.120Z,1.70
2023-05-01T08:24:18.224Z,1.40
2023-05-01T08:27:08.808Z,2.00
2023-05-01T08:29:57.915Z,1.70
2023-05-01T08:32:48.204Z,1.70
2023-05-01T08:35:37.401Z,1.90
2023-05-01T08:38:29.026Z,2.10
2023-05-01T08:41:21.863Z,2.00
2023-05-01T08:44:15.909Z,1.60
2023-05-01T08:47:12.387Z,1.40
2023-05-01T08:50:03.437Z,1.80
2023-05-01T08:52:54.137Z,2.00
2023-05-01T08:55:46.773Z,1.90
2023-05-01T08:58:36.908Z,1.90
2023-05-01T09:01:29.140Z,2.00
2023-05-01T09:04:18.653Z,2.30
2023-05-01T09:07:09.160Z,2.20
2023-05-01T09:09:59.314Z,2.20
2023-05-01T09:12:54.343Z,2.00
2023-05-01T09:15:33.509Z,2.70
2023-05-01T09:18:23.608Z,2.40
2023-05-01T09:21:12.636Z,2.20
2023-05-01T09:24:02.967Z,2.00
2023-05-01T09:26:53.884Z,2.10
2023-05-01T09:29:45.009Z,2.10
2023-05-01T09:32:27.656Z,2.50
2023-05-01T09:35:17.698Z,2.30
2023-05-01T09:38:07.392Z,2.40
2023-05-01T09:41:04.922Z,2.40
2023-05-01T09:43:55.978Z,2.60
2023-05-01T09:46:45.593Z,2.30
2023-05-01T09:49:54.108Z,2.20
2023-05-01T09:52:52.080Z,2.50
2023-05-01T09:55:41.380Z,2.40
2023-05-01T09:58:31.751Z,2.20
2023-05-01T10:01:40.116Z,2.40
2023-05-01T10:04:33.334Z,2.10
2023-05-01T10:07:22.850Z,2.30
2023-05-01T10:10:19.514Z,2.30
2023-05-01T10:13:15.053Z,1.90
2023-05-01T10:16:06.942Z,2.00
2023-05-01T10:18:59.497Z,1.90
2023-05-01T10:21:48.973Z,2.20
2023-05-01T10:24:39.625Z,2.20
2023-05-01T10:27:30.211Z,2.30
2023-05-01T10:30:21.959Z,1.90
2023-05-01T10:33:13.873Z,2.20
2023-05-01T10:36:06.291Z,1.90
2023-05-01T10:38:48.995Z,2.10
2023-05-01T10:42:06.072Z,2.00
2023-05-01T10:45:29.741Z,2.10
2023-05-01T10:48:56.627Z,2.30
2023-05-01T10:52:03.490Z,1.80
2023-05-01T10:54:54.797Z,1.80
2023-05-01T10:57:45.631Z,1.90
2023-05-01T11:00:34.982Z,2.10
2023-05-01T11:03:39.613Z,1.70
2023-05-01T11:06:30.657Z,1.80
2023-05-01T11:09:40.447Z,1.60
2023-05-01T11:12:51.629Z,1.90
2023-05-01T11:15:41.432Z,1.90
2023-05-01T11:18:48.730Z,2.10
2023-05-01T11:21:41.326Z,2.10
2023-05-01T11:24:33.622Z,2.00
2023-05-01T11:27:24.233Z,2.00
2023-05-01T11:30:14.286Z,2.00
2023-05-01T11:33:05.519Z,2.00
2023-05-01T11:36:04.455Z,1.80
2023-05-01T11:38:56.346Z,1.70
2023-05-01T11:41:46.749Z,1.60
2023-05-01T11:44:37.241Z,1.60
2023-05-01T11:47:31.758Z,1.70
2023-05-01T11:50:21.459Z,1.80
2023-05-01T11:53:15.126Z,1.70
2023-05-01T11:56:26.043Z,1.90
2023-05-01T11:59:17.396Z,1.80
2023-05-01T12:02:19.475Z,1.80
2023-05-01T12:05:17.664Z,2.10
2023-05-01T12:08:18.277Z,2.00
2023-05-01T12:11:00.826Z,1.70
2023-05-01T12:13:51.173Z,1.90
2023-05-01T12:16:41.814Z,1.90
2023-05-01T12:19:31.734Z,1.80
2023-05-01T12:22:21.906Z,1.70
2023-05-01T12:25:12.339Z,2.20
2023-05-01T12:28:05.184Z,1.80
2023-05-01T12:31:05.398Z,1.80
2023-05-01T12:33:56.882Z,1.90
2023-05-01T12:36:53.967Z,2.10
2023-05-01T12:39:45.153Z,2.30
2023-05-01T12:42:34.136Z,2.00
2023-05-01T12:45:23.228Z,1.70
2023-05-01T12:48:14.377Z,1.90
2023-05-01T12:51:03.723Z,2.00
2023-05-01T12:53:57.125Z,1.90
2023-05-01T12:56:46.533Z,2.60
2023-05-01T12:59:37.318Z,2.10
2023-05-01T13:02:31.724Z,2.00
2023-05-01T13:05:20.883Z,1.70
2023-05-01T13:08:10.840Z,2.00
2023-05-01T13:11:03.386Z,2.10
2023-05-01T13:13:52.437Z,2.20
2023-05-01T13:16:46.421Z,1.80
2023-05-01T13:19:36.280Z,2.00
2023-05-01T13:22:33.815Z,1.70
2023-05-01T13:25:23.028Z,1.30
2023-05-01T13:28:20.586Z,1.70
2023-05-01T13:31:13.755Z,1.70
2023-05-01T13:34:05.292Z,1.90
2023-05-01T13:36:56.226Z,1.60
2023-05-01T13:39:46.554Z,1.70
2023-05-01T13:42:22.639Z,1.80
2023-05-01T13:45:13.142Z,2.00
2023-05-01T13:48:04.702Z,1.70
2023-05-01T13:50:55.026Z,1.90
2023-05-01T13:53:44.006Z,1.50
2023-05-01T13:56:35.448Z,1.80
2023-05-01T13:59:43.522Z,1.60
2023-05-01T14:02:32.789Z,1.40
2023-05-01T14:05:27.674Z,1.80
2023-05-01T14:08:20.593Z,1.60
2023-05-01T14:11:09.596Z,1.50
2023-05-01T14:14:03.633Z,1.70
2023-05-01T14:16:52.606Z,1.60
2023-05-01T14:19:41.884Z,1.40
2023-05-01T14:22:34.680Z,1.70
2023-05-01T14:25:24.600Z,1.60
2023-05-01T14:28:14.959Z,1.10
2023-05-01T14:31:04.416Z,1.60
2023-05-01T14:33:57.509Z,1.80
2023-05-01T14:36:46.778Z,1.40
2023-05-01T14:39:37.633Z,1.40
2023-05-01T14:42:29.623Z,1.40
2023-05-01T14:45:18.959Z,1.70
2023-05-01T14:48:10.439Z,1.60
2023-05-01T14:51:00.035Z,1.20
2023-05-01T14:53:51.280Z,1.20
2023-05-01T14:56:42.098Z,1.30
2023-05-01T14:59:31.392Z,1.80
2023-05-01T15:02:20.866Z,1.60
2023-05-01T15:05:10.586Z,1.60
2023-05-01T15:08:00.271Z,2.00
2023-05-01T15:10:49.486Z,1.40
2023-05-01T15:13:40.906Z,1.50
2023-05-01T15:16:33.931Z,1.40
2023-05-01T15:19:23.088Z,1.60
2023-05-01T15:22:12.567Z,1.20
2023-05-01T15:25:01.830Z,1.60
2023-05-01T15:27:51.656Z,1.30
2023-05-01T15:30:45.788Z,1.60
2023-05-01T15:33:35.124Z,1.50
2023-05-01T15:36:24.320Z,1.90
2023-05-01T15:39:15.492Z,1.30
2023-05-01T15:42:04.731Z,1.80
2023-05-01T15:44:55.111Z,2.00
2023-05-01T15:47:44.926Z,1.80
2023-05-01T15:50:34.180Z,1.60
2023-05-01T15:53:23.842Z,1.40
2023-05-01T15:56:13.176Z,2.00
2023-05-01T15:59:03.931Z,1.70
2023-05-01T16:01:55.810Z,1.40
2023-05-01T16:04:47.668Z,1.60
2023-05-01T16:07:35.868Z,1.90
2023-05-01T16:10:19.744Z,1.40
2023-05-01T16:13:09.892Z,1.40
2023-05-01T16:15:59.422Z,1.50
2023-05-01T16:18:54.818Z,1.40
2023-05-01T16:21:43.814Z,1.40
2023-05-01T16:24:33.881Z,1.60
2023-05-01T16:27:22.979Z,1.50
2023-05-01T16:30:14.949Z,1.20
2023-05-01T16:33:05.477Z,1.50
2023-05-01T16:35:59.712Z,1.10
2023-05-01T16:38:48.777Z,1.90
2023-05-01T16:41:45.070Z,1.30
2023-05-01T16:44:36.378Z,1.40
2023-05-01T16:47:15.973Z,1.30
2023-05-01T16:50:00.844Z,1.40
2023-05-01T16:52:51.988Z,1.30
2023-05-01T16:55:42.895Z,1.70
2023-05-01T16:58:32.376Z,1.70
2023-05-01T17:01:21.995Z,1.50
2023-05-01T17:04:14.410Z,1.30
2023-05-01T17:07:03.461Z,1.50
2023-05-01T17:09:52.977Z,1.70
2023-05-01T17:12:42.167Z,1.60
2023-05-01T17:15:25.023Z,1.50
2023-05-01T17:18:12.964Z,2.80
2023-05-01T17:21:02.705Z,3.30
2023-05-01T17:23:54.185Z,3.10
2023-05-01T17:26:43.663Z,2.80
2023-05-01T17:29:33.038Z,2.40
2023-05-01T17:32:25.822Z,1.70
2023-05-01T17:35:22.822Z,1.80
2023-05-01T17:38:12.094Z,1.80
2023-05-01T17:41:01.316Z,1.70
2023-05-01T17:43:50.614Z,1.50
2023-05-01T17:46:40.560Z,1.60
2023-05-01T17:49:30.382Z,2.10
2023-05-01T17:52:19.640Z,1.70
2023-05-01T17:55:11.359Z,2.00
2023-05-01T17:57:55.218Z,1.50
2023-05-01T18:00:44.112Z,1.70
2023-05-01T18:03:33.820Z,1.60
2023-05-01T18:06:23.900Z,2.00
2023-05-01T18:09:13.351Z,1.90
2023-05-01T18:12:03.508Z,1.60
2023-05-01T18:14:53.490Z,1.60
2023-05-01T18:17:42.638Z,2.00
2023-05-01T18:20:31.774Z,1.50
2023-05-01T18:23:21.253Z,1.70
2023-05-01T18:26:10.588Z,1.40
2023-05-01T18:29:00.260Z,1.80
2023-05-01T18:31:50.630Z,1.90
2023-05-01T18:34:42.207Z,1.70
2023-05-01T18:37:31.477Z,1.70
2023-05-01T18:40:21.115Z,1.70
2023-05-01T18:43:11.723Z,2.70
2023-05-01T18:46:01.242Z,2.10
2023-05-01T18:48:50.944Z,2.20
2023-05-01T18:51:41.316Z,2.00
2023-05-01T18:54:31.196Z,1.90
2023-05-01T18:57:22.303Z,1.80
2023-05-01T19:00:15.566Z,2.40
2023-05-01T19:03:05.206Z,2.40
2023-05-01T19:05:57.337Z,2.70
2023-05-01T19:08:47.222Z,2.70
2023-05-01T19:11:37.160Z,4.60
2023-05-01T19:14:26.682Z,5.80
2023-05-01T19:17:16.293Z,3.40
2023-05-01T19:20:08.146Z,3.60
2023-05-01T19:22:57.905Z,3.70
2023-05-01T19:25:47.681Z,4.00
2023-05-01T19:28:38.538Z,4.40
2023-05-01T19:31:28.321Z,4.00
2023-05-01T19:34:18.480Z,4.30
2023-05-01T19:37:08.078Z,4.20
2023-05-01T19:40:01.658Z,4.00
2023-05-01T19:42:52.157Z,4.20
2023-05-01T19:45:35.761Z,4.30
2023-05-01T19:48:25.334Z,4.70
2023-05-01T19:51:14.814Z,5.20
2023-05-01T19:54:05.067Z,4.40
2023-05-01T19:56:55.490Z,4.50
2023-05-01T19:59:46.093Z,4.40
2023-05-01T20:02:35.429Z,5.10
2023-05-01T20:05:27.720Z,4.50
2023-05-01T20:08:16.251Z,4.50
2023-05-01T20:11:07.028Z,4.40
2023-05-01T20:13:59.105Z,3.70
2023-05-01T20:16:42.461Z,4.40
2023-05-01T20:19:31.811Z,4.20
2023-05-01T20:22:21.599Z,3.60
2023-05-01T20:25:11.736Z,4.50
2023-05-01T20:28:02.856Z,3.70
2023-05-01T20:30:56.562Z,4.20
2023-05-01T20:33:46.832Z,4.20
2023-05-01T20:36:37.224Z,4.50
2023-05-01T20:39:38.099Z,4.40
2023-05-01T20:42:20.869Z,4.20
2023-05-01T20:45:11.214Z,3.50
2023-05-01T20:48:01.848Z,4.30
2023-05-01T20:50:54.166Z,4.40
2023-05-01T20:53:43.277Z,3.00
2023-05-01T20:56:34.031Z,3.10
2023-05-01T21:02:11.692Z,2.20
2023-05-01T21:05:01.618Z,2.70
2023-05-01T21:07:53.544Z,3.70
2023-05-01T21:10:32.563Z,3.20
2023-05-01T21:13:24.314Z,3.20
2023-05-01T21:16:16.434Z,4.60
2023-05-01T21:19:06.441Z,5.20
2023-05-01T21:21:56.392Z,4.80
2023-05-01T21:27:41.166Z,5.10
2023-05-01T21:30:33.020Z,3.80
2023-05-01T21:33:33.669Z,4.30
2023-05-01T21:36:23.514Z,3.90
2023-05-01T21:39:13.205Z,4.70
2023-05-01T21:42:04.720Z,3.50
2023-05-01T21:44:55.007Z,5.00
2023-05-01T21:47:47.032Z,3.80
2023-05-01T21:50:38.135Z,4.10
2023-05-01T21:53:29.474Z,3.40
2023-05-01T21:56:22.317Z,4.10
2023-05-01T21:59:13.006Z,3.30
2023-05-01T22:02:09.670Z,3.70
2023-05-01T22:04:58.942Z,3.50
2023-05-01T22:07:48.706Z,3.10
2023-05-01T22:10:40.250Z,3.00
2023-05-01T22:13:32.922Z,3.00
2023-05-01T22:16:15.423Z,3.00
2023-05-01T22:19:05.935Z,2.20
2023-05-01T22:21:56.381Z,3.00
2023-05-01T22:24:45.593Z,2.80
2023-05-01T22:27:38.255Z,2.90
2023-05-01T22:30:29.073Z,3.20
2023-05-01T22:33:18.665Z,3.30
2023-05-01T22:36:08.074Z,3.30
2023-05-01T22:38:58.374Z,2.70
2023-05-01T22:41:48.363Z,3.60
2023-05-01T22:44:37.544Z,2.80
2023-05-01T22:47:36.893Z,3.30
2023-05-01T22:50:28.691Z,2.70
2023-05-01T22:53:17.764Z,3.70
2023-05-01T22:56:10.956Z,2.90
2023-05-01T22:59:00.279Z,3.30
2023-05-01T23:01:49.656Z,2.70
2023-05-01T23:04:39.272Z,2.90
2023-05-01T23:07:31.371Z,3.40
2023-05-01T23:10:24.017Z,2.80
2023-05-01T23:13:18.878Z,3.20
2023-05-01T23:16:08.489Z,3.60
2023-05-01T23:18:58.338Z,3.00
2023-05-01T23:21:51.014Z,2.80
2023-05-01T23:24:43.556Z,2.60
2023-05-01T23:27:14.152Z,2.20
2023-05-01T23:30:07.240Z,2.80
2023-05-01T23:32:58.676Z,2.80
2023-05-01T23:35:48.658Z,3.20
2023-05-01T23:38:38.034Z,3.20
2023-05-01T23:41:30.314Z,3.20
2023-05-01T23:44:12.071Z,3.10
2023-05-01T23:47:01.236Z,2.70
2023-05-01T23:49:50.820Z,2.70
2023-05-01T23:52:40.647Z,3.20
2023-05-01T23:55:31.180Z,2.80
2023-05-01T23:58:20.923Z,2.60
